createdAt,value
2023-04-03T00:01:58.546Z,74.63
2023-04-03T00:07:04.165Z,74.45
2023-04-03T00:12:09.833Z,74.42
2023-04-03T00:17:16.236Z,74.63
2023-04-03T00:22:21.831Z,74.59
2023-04-03T00:27:27.530Z,74.83
2023-04-03T00:32:33.377Z,74.59
2023-04-03T00:37:39.456Z,74.49
2023-04-03T00:42:47.311Z,74.62
2023-04-03T00:47:54.117Z,74.66
2023-04-03T00:53:03.564Z,74.70
2023-04-03T00:58:10.334Z,74.33
2023-04-03T01:03:16.546Z,73.82
2023-04-03T01:08:21.994Z,73.88
2023-04-03T01:13:31.544Z,74.02
2023-04-03T01:18:40.074Z,74.16
2023-04-03T01:24:02.870Z,74.26
2023-04-03T01:29:08.465Z,74.36
2023-04-03T01:34:14.460Z,74.55
2023-04-03T01:39:20.691Z,74.62
2023-04-03T01:44:26.602Z,74.73
2023-04-03T01:49:32.189Z,74.77
2023-04-03T01:54:37.866Z,74.98
2023-04-03T01:59:43.521Z,75.27
2023-04-03T02:04:49.277Z,75.19
2023-04-03T02:09:54.754Z,74.86
2023-04-03T02:15:01.861Z,74.76
2023-04-03T02:20:09.578Z,74.61
2023-04-03T02:25:15.305Z,74.73
2023-04-03T02:30:21.218Z,74.82
2023-04-03T02:35:27.074Z,74.83
2023-04-03T02:40:34.374Z,75.08
2023-04-03T02:45:40.809Z,75.29
2023-04-03T02:50:46.678Z,75.43
2023-04-03T02:55:52.255Z,75.63
2023-04-03T03:00:57.754Z,75.75
2023-04-03T03:06:08.957Z,75.93
2023-04-03T03:11:15.012Z,75.94
2023-04-03T03:16:21.563Z,75.92
2023-04-03T03:21:28.228Z,75.92
2023-04-03T03:26:34.478Z,75.96
2023-04-03T03:31:41.477Z,76.12
2023-04-03T03:36:46.962Z,76.29
2023-04-03T03:41:54.466Z,76.53
2023-04-03T03:47:00.947Z,76.57
2023-04-03T03:52:11.499Z,76.50
2023-04-03T03:57:17.268Z,76.74
2023-04-03T04:02:23.357Z,76.80
2023-04-03T04:07:30.242Z,76.76
2023-04-03T04:12:36.899Z,77.08
2023-04-03T04:17:43.253Z,77.36
2023-04-03T04:22:51.245Z,77.46
2023-04-03T04:27:57.305Z,77.82
2023-04-03T04:33:03.489Z,77.80
2023-04-03T04:38:10.468Z,77.71
2023-04-03T04:43:17.159Z,77.51
2023-04-03T04:48:24.795Z,77.32
2023-04-03T04:53:30.581Z,76.78
2023-04-03T04:58:36.532Z,74.32
2023-04-03T05:03:42.950Z,71.37
2023-04-03T05:09:04.372Z,70.49
2023-04-03T05:14:10.738Z,69.97
2023-04-03T05:19:16.694Z,66.92
2023-04-03T05:24:22.921Z,65.63
2023-04-03T05:29:28.684Z,64.33
2023-04-03T05:34:35.267Z,60.33
2023-04-03T05:39:42.131Z,54.22
2023-04-03T05:44:49.744Z,49.73
2023-04-03T05:49:55.592Z,45.40
2023-04-03T05:55:01.490Z,41.79
2023-04-03T06:00:15.077Z,39.65
2023-04-03T06:05:22.166Z,40.88
2023-04-03T06:10:28.538Z,41.02
2023-04-03T06:15:34.861Z,39.17
2023-04-03T06:20:41.026Z,39.76
2023-04-03T06:25:47.081Z,40.31
2023-04-03T06:30:52.644Z,41.34
2023-04-03T06:36:03.948Z,42.55
2023-04-03T06:41:09.387Z,41.52
2023-04-03T06:46:18.147Z,39.64
2023-04-03T06:51:27.077Z,38.69
2023-04-03T06:56:33.293Z,36.76
2023-04-03T07:01:43.032Z,35.20
2023-04-03T07:06:49.153Z,33.54
2023-04-03T07:11:54.972Z,33.13
2023-04-03T07:17:00.648Z,31.38
2023-04-03T07:22:06.098Z,29.37
2023-04-03T07:27:13.812Z,28.32
2023-04-03T07:32:19.744Z,27.12
2023-04-03T07:37:26.041Z,26.82
2023-04-03T07:42:31.658Z,24.83
2023-04-03T07:47:37.215Z,24.90
2023-04-03T07:52:42.922Z,24.81
2023-04-03T07:57:48.542Z,23.52
2023-04-03T08:02:54.163Z,23.08
2023-04-03T08:08:00.322Z,23.24
2023-04-03T08:13:06.711Z,23.37
2023-04-03T08:18:12.499Z,22.78
2023-04-03T08:23:20.084Z,22.06
2023-04-03T08:28:26.249Z,23.25
2023-04-03T08:33:31.679Z,22.07
2023-04-03T08:38:38.301Z,21.32
2023-04-03T08:43:58.705Z,21.30
2023-04-03T08:49:05.947Z,22.18
2023-04-03T08:54:24.443Z,22.52
2023-04-03T08:59:33.897Z,23.78
2023-04-03T09:04:39.359Z,23.14
2023-04-03T09:09:46.240Z,23.69
2023-04-03T09:15:03.233Z,23.77
2023-04-03T09:20:21.288Z,23.84
2023-04-03T09:25:31.691Z,24.65
2023-04-03T09:30:39.388Z,23.88
2023-04-03T09:35:48.734Z,24.20
2023-04-03T09:41:08.606Z,24.37
2023-04-03T09:46:29.793Z,25.12
2023-04-03T09:51:35.466Z,25.03
2023-04-03T09:56:41.049Z,26.02
2023-04-03T10:02:00.851Z,26.24
2023-04-03T10:07:31.095Z,25.79
2023-04-03T10:12:36.620Z,24.90
2023-04-03T10:17:56.425Z,24.09
2023-04-03T10:23:15.572Z,25.46
2023-04-03T10:28:28.678Z,26.32
2023-04-03T10:33:45.510Z,26.55
2023-04-03T10:39:04.472Z,26.43
2023-04-03T10:44:21.458Z,27.84
2023-04-03T10:55:05.086Z,29.10
2023-04-03T11:00:20.785Z,27.98
2023-04-03T11:05:33.478Z,29.02
2023-04-03T11:10:44.008Z,27.69
2023-04-03T11:15:50.377Z,27.49
2023-04-03T11:21:05.143Z,28.77
2023-04-03T11:26:14.537Z,28.05
2023-04-03T11:31:44.363Z,29.65
2023-04-03T11:36:55.250Z,29.02
2023-04-03T11:42:13.497Z,29.59
2023-04-03T11:47:47.058Z,30.93
2023-04-03T11:53:04.970Z,30.58
2023-04-03T11:58:17.614Z,30.85
2023-04-03T12:03:35.656Z,31.43
2023-04-03T12:08:48.700Z,31.29
2023-04-03T12:14:14.599Z,31.60
2023-04-03T12:19:42.317Z,31.24
2023-04-03T12:24:51.651Z,30.58
2023-04-03T12:30:05.151Z,31.14
2023-04-03T12:35:22.613Z,30.88
2023-04-03T12:40:37.220Z,30.67
2023-04-03T12:45:49.712Z,31.98
2023-04-03T12:50:55.910Z,32.46
2023-04-03T12:56:22.351Z,32.99
2023-04-03T13:01:28.995Z,32.26
2023-04-03T13:06:39.402Z,31.96
2023-04-03T13:11:46.694Z,32.52
2023-04-03T13:16:59.787Z,32.66
2023-04-03T13:22:09.318Z,33.21
2023-04-03T13:27:15.758Z,33.44
2023-04-03T13:32:24.778Z,33.56
2023-04-03T13:37:32.697Z,33.75
2023-04-03T13:42:42.232Z,33.53
2023-04-03T13:47:49.861Z,33.43
2023-04-03T13:53:02.284Z,33.40
2023-04-03T13:58:24.564Z,33.84
2023-04-03T14:03:33.954Z,34.15
2023-04-03T14:08:43.488Z,34.10
2023-04-03T14:13:51.411Z,33.52
2023-04-03T14:18:57.602Z,33.57
2023-04-03T14:24:03.480Z,33.76
2023-04-03T14:29:11.835Z,34.24
2023-04-03T14:34:18.442Z,34.61
2023-04-03T14:39:24.085Z,34.97
2023-04-03T14:44:29.770Z,35.47
2023-04-03T14:49:36.015Z,35.36
2023-04-03T14:54:41.428Z,35.45
2023-04-03T14:59:47.380Z,35.27
2023-04-03T15:04:53.608Z,35.50
2023-04-03T15:09:59.434Z,35.97
2023-04-03T15:15:06.182Z,35.95
2023-04-03T15:20:20.346Z,36.82
2023-04-03T15:25:27.204Z,36.94
2023-04-03T15:30:33.610Z,36.51
2023-04-03T15:35:39.198Z,36.57
2023-04-03T15:40:45.552Z,36.73
2023-04-03T15:45:51.811Z,36.89
2023-04-03T15:50:59.072Z,37.62
2023-04-03T15:56:05.800Z,37.61
2023-04-03T16:01:14.586Z,37.78
2023-04-03T16:06:21.209Z,38.10
2023-04-03T16:11:27.898Z,38.10
2023-04-03T16:16:34.168Z,38.09
2023-04-03T16:21:39.923Z,38.31
2023-04-03T16:26:45.542Z,38.38
2023-04-03T16:31:53.275Z,38.91
2023-04-03T16:36:59.980Z,39.13
2023-04-03T16:42:06.393Z,39.72
2023-04-03T16:47:14.018Z,39.88
2023-04-03T16:52:20.204Z,39.89
2023-04-03T16:57:26.628Z,40.15
2023-04-03T17:02:32.762Z,40.49
2023-04-03T17:07:39.410Z,41.32
2023-04-03T17:12:45.444Z,41.65
2023-04-03T17:17:54.308Z,41.87
2023-04-03T17:22:59.910Z,41.75
2023-04-03T17:28:05.713Z,41.94
2023-04-03T17:33:11.533Z,42.37
2023-04-03T17:38:17.557Z,42.58
2023-04-03T17:43:23.417Z,42.76
2023-04-03T17:48:29.601Z,42.88
2023-04-03T17:53:36.072Z,43.03
2023-04-03T17:58:42.672Z,43.20
2023-04-03T18:03:51.814Z,43.23
2023-04-03T18:09:03.459Z,43.46
2023-04-03T18:14:10.564Z,43.61
2023-04-03T18:19:23.308Z,43.78
2023-04-03T18:24:32.661Z,44.08
2023-04-03T18:29:41.158Z,44.38
2023-04-03T18:34:46.939Z,44.49
2023-04-03T18:39:52.601Z,44.84
2023-04-03T18:45:01.369Z,45.39
2023-04-03T18:50:08.598Z,46.26
2023-04-03T18:55:16.367Z,46.66
2023-04-03T19:00:22.323Z,47.42
2023-04-03T19:05:28.703Z,47.97
2023-04-03T19:10:34.311Z,48.28
2023-04-03T19:15:40.907Z,48.53
2023-04-03T19:20:46.749Z,48.85
2023-04-03T19:26:00.904Z,48.82
2023-04-03T19:31:14.028Z,49.12
2023-04-03T19:36:19.804Z,49.32
2023-04-03T19:41:28.544Z,49.55
2023-04-03T19:46:35.216Z,49.55
2023-04-03T19:51:41.019Z,49.79
2023-04-03T19:56:46.647Z,49.99
2023-04-03T20:01:52.914Z,50.18
2023-04-03T20:06:58.756Z,50.37
2023-04-03T20:12:04.498Z,50.68
2023-04-03T20:17:10.393Z,51.00
2023-04-03T20:22:16.288Z,51.14
2023-04-03T20:27:22.321Z,51.23
2023-04-03T20:32:27.983Z,51.40
2023-04-03T20:37:33.867Z,51.54
2023-04-03T20:42:40.537Z,51.86
2023-04-03T20:47:46.604Z,52.06
2023-04-03T20:52:52.342Z,52.32
2023-04-03T20:58:01.209Z,52.51
2023-04-03T21:03:07.839Z,52.86
2023-04-03T21:08:41.127Z,53.05
2023-04-03T21:14:17.320Z,53.08
2023-04-03T21:19:22.822Z,53.43
2023-04-03T21:24:33.094Z,53.60
2023-04-03T21:29:38.857Z,54.00
2023-04-03T21:34:44.552Z,54.21
2023-04-03T21:39:50.054Z,54.32
2023-04-03T21:44:56.304Z,54.65
2023-04-03T21:50:02.028Z,54.85
2023-04-03T21:55:09.441Z,55.07
2023-04-03T22:00:17.312Z,55.48
2023-04-03T22:05:23.222Z,55.61
2023-04-03T22:10:29.527Z,55.96
2023-04-03T22:15:43.118Z,56.10
2023-04-03T22:20:49.037Z,56.36
2023-04-03T22:26:02.713Z,56.72
2023-04-03T22:31:09.808Z,56.82
2023-04-03T22:36:15.619Z,57.24
2023-04-03T22:41:21.054Z,57.77
2023-04-03T22:46:26.708Z,58.12
2023-04-03T22:51:32.099Z,58.26
2023-04-03T22:56:37.733Z,58.66
2023-04-03T23:01:43.637Z,58.74
2023-04-03T23:06:49.367Z,58.92
2023-04-03T23:11:54.766Z,59.28
2023-04-03T23:17:05.530Z,59.41
2023-04-03T23:22:12.270Z,59.53
2023-04-03T23:27:17.665Z,60.03
2023-04-03T23:32:23.117Z,60.41
2023-04-03T23:37:28.955Z,60.65
2023-04-03T23:42:34.446Z,60.87
2023-04-03T23:47:39.975Z,61.17
2023-04-03T23:52:45.761Z,61.50
2023-04-03T23:57:51.922Z,61.94
